Time;durP1;ratioP1;P1;durP2;ratioP2;P2;SDS_P1;SDS_P2;PMS_P1;PMS_P2;Temp;Humidity;BMP_temperature;BMP_pressure;BME280_temperature;BME280_humidity;BME280_pressure;Samples;Min_cycle;Max_cycle;Signal;HPM_P1;HPM_P2
2022/03/10 00:01:13;;;;;;;10.93;4.20;;;;;;;;;;6280896;22;20111;-87
2022/03/10 00:03:41;;;;;;;8.70;4.50;;;;;;;;;;6282059;22;20034;-87
2022/03/10 00:06:09;;;;;;;11.88;5.00;;;;;;;;;;6283812;22;20463;-87
2022/03/10 00:08:39;;;;;;;11.35;4.90;;;;;;;;;;6283055;22;20084;-87
2022/03/10 00:11:07;;;;;;;10.48;4.57;;;;;;;;;;6281369;22;20019;-88
2022/03/10 00:13:35;;;;;;;10.38;4.70;;;;;;;;;;6283475;22;20011;-88
2022/03/10 00:16:03;;;;;;;11.55;5.20;;;;;;;;;;6282896;22;20065;-88
2022/03/10 00:18:31;;;;;;;11.15;4.85;;;;;;;;;;6271545;22;20376;-88
2022/03/10 00:20:59;;;;;;;12.10;5.25;;;;;;;;;;6283797;22;20029;-87
2022/03/10 00:23:27;;;;;;;11.73;5.40;;;;;;;;;;6282719;22;20015;-88
2022/03/10 00:25:58;;;;;;;9.63;4.93;;;;;;;;;;6283351;22;20511;-88
2022/03/10 00:28:25;;;;;;;11.75;5.38;;;;;;;;;;6282856;22;20042;-87
2022/03/10 00:30:53;;;;;;;9.10;4.53;;;;;;;;;;6283268;22;20503;-88
2022/03/10 00:33:22;;;;;;;11.95;5.38;;;;;;;;;;6282944;22;20114;-88
2022/03/10 00:35:49;;;;;;;10.88;4.35;;;;;;;;;;6280965;22;20012;-88
2022/03/10 00:38:18;;;;;;;10.93;5.07;;;;;;;;;;6245924;22;20486;-88
2022/03/10 00:40:49;;;;;;;10.77;4.57;;;;;;;;;;6284034;22;20023;-88
2022/03/10 00:43:17;;;;;;;9.75;4.80;;;;;;;;;;6284272;22;20019;-87
2022/03/10 00:45:45;;;;;;;12.50;5.65;;;;;;;;;;6281278;22;20012;-88
2022/03/10 00:48:13;;;;;;;11.82;5.35;;;;;;;;;;6281524;22;20027;-88
2022/03/10 00:50:41;;;;;;;10.30;5.32;;;;;;;;;;6281407;22;20047;-79
2022/03/10 00:53:11;;;;;;;14.65;5.05;;;;;;;;;;6282019;22;20020;-79
2022/03/10 00:55:39;;;;;;;10.15;5.00;;;;;;;;;;6282649;22;20126;-88
2022/03/10 00:58:07;;;;;;;10.52;4.88;;;;;;;;;;6283074;22;20450;-88
2022/03/10 01:00:35;;;;;;;8.85;4.72;;;;;;;;;;6281216;22;20091;-89
2022/03/10 01:03:05;;;;;;;10.98;4.65;;;;;;;;;;6246666;22;20024;-88
2022/03/10 01:05:34;;;;;;;13.95;4.95;;;;;;;;;;6280810;22;20070;-89
2022/03/10 01:08:01;;;;;;;10.98;4.90;;;;;;;;;;6282820;22;20020;-89
2022/03/10 01:10:30;;;;;;;10.73;4.93;;;;;;;;;;6221192;22;20055;-89
2022/03/10 01:12:58;;;;;;;13.38;5.00;;;;;;;;;;6282678;22;20024;-89
2022/03/10 01:15:28;;;;;;;10.15;5.25;;;;;;;;;;6281864;22;20054;-89
2022/03/10 01:17:56;;;;;;;9.43;4.75;;;;;;;;;;6281330;22;20024;-88
2022/03/10 01:20:25;;;;;;;12.27;5.00;;;;;;;;;;6281366;22;20050;-88
2022/03/10 01:22:53;;;;;;;13.10;5.55;;;;;;;;;;6283149;22;20019;-88
2022/03/10 01:25:21;;;;;;;10.10;4.63;;;;;;;;;;6245670;22;20023;-88
2022/03/10 01:27:50;;;;;;;13.27;5.40;;;;;;;;;;6281375;22;20694;-88
2022/03/10 01:30:17;;;;;;;11.75;5.32;;;;;;;;;;6283109;22;20058;-88
2022/03/10 01:32:45;;;;;;;12.45;5.13;;;;;;;;;;6280972;22;20023;-88
2022/03/10 01:35:14;;;;;;;13.18;5.70;;;;;;;;;;6281258;22;20451;-88
2022/03/10 01:37:41;;;;;;;14.10;5.60;;;;;;;;;;6280892;22;20134;-89
2022/03/10 01:40:12;;;;;;;11.68;4.88;;;;;;;;;;6282517;22;20020;-88
2022/03/10 01:42:40;;;;;;;10.93;5.30;;;;;;;;;;6282638;22;20090;-88
2022/03/10 01:45:09;;;;;;;11.07;4.60;;;;;;;;;;6255576;22;20074;-87
2022/03/10 01:47:38;;;;;;;9.45;4.60;;;;;;;;;;6282216;22;20175;-88
2022/03/10 01:50:07;;;;;;;9.20;4.93;;;;;;;;;;6282626;22;20051;-87
2022/03/10 01:52:35;;;;;;;12.43;5.47;;;;;;;;;;6282644;22;20347;-87
2022/03/10 01:55:04;;;;;;;21.38;6.18;;;;;;;;;;6270480;22;20092;-87
2022/03/10 01:57:32;;;;;;;11.80;5.60;;;;;;;;;;6280668;22;20023;-87
2022/03/10 01:59:59;;;;;;;11.50;4.90;;;;;;;;;;6283942;22;20041;-87
2022/03/10 02:02:27;;;;;;;12.38;5.22;;;;;;;;;;6283491;22;20071;-88
2022/03/10 02:04:55;;;;;;;11.73;5.18;;;;;;;;;;6285094;22;20351;-87
2022/03/10 02:10:17;;;;;;;13.40;5.60;;;;;;;;;;6285002;22;20629;-88
2022/03/10 02:12:47;;;;;;;11.40;5.72;;;;;;;;;;6275295;22;20025;-87
2022/03/10 02:18:10;;;;;;;13.50;5.50;;;;;;;;;;6285344;22;20012;-87
2022/03/10 02:20:38;;;;;;;12.02;5.00;;;;;;;;;;6284466;22;20081;-87
2022/03/10 02:23:08;;;;;;;9.82;4.97;;;;;;;;;;6284296;22;20019;-87
2022/03/10 02:25:36;;;;;;;10.77;4.88;;;;;;;;;;6247513;22;20099;-88
2022/03/10 02:28:04;;;;;;;11.80;5.97;;;;;;;;;;6283396;22;20105;-87
2022/03/10 02:30:32;;;;;;;10.02;4.30;;;;;;;;;;6283235;22;20085;-87
2022/03/10 02:32:59;;;;;;;12.13;5.72;;;;;;;;;;6284957;22;20016;-87
2022/03/10 02:35:27;;;;;;;11.18;5.05;;;;;;;;;;6248076;22;20031;-87
2022/03/10 02:37:56;;;;;;;11.57;5.47;;;;;;;;;;6297875;22;20015;-87
2022/03/10 02:40:24;;;;;;;12.32;5.47;;;;;;;;;;6282503;22;20047;-88
2022/03/10 02:42:51;;;;;;;13.18;5.60;;;;;;;;;;6283869;22;20012;-88
2022/03/10 02:45:22;;;;;;;10.80;5.22;;;;;;;;;;6272312;22;20058;-88
2022/03/10 02:47:49;;;;;;;15.52;5.90;;;;;;;;;;6283952;22;20011;-88
2022/03/10 02:50:17;;;;;;;10.48;5.13;;;;;;;;;;6284595;22;20019;-88
2022/03/10 02:52:45;;;;;;;10.73;5.10;;;;;;;;;;6255745;22;20091;-79
2022/03/10 02:55:13;;;;;;;10.98;5.43;;;;;;;;;;6281433;22;20047;-79
2022/03/10 02:57:41;;;;;;;11.20;4.93;;;;;;;;;;6282654;22;20182;-78
2022/03/10 03:00:09;;;;;;;14.98;5.15;;;;;;;;;;6280889;22;20394;-79
2022/03/10 03:02:38;;;;;;;12.95;5.53;;;;;;;;;;6279753;22;20027;-79
2022/03/10 03:05:06;;;;;;;11.93;5.68;;;;;;;;;;6281995;22;20023;-79
2022/03/10 03:07:34;;;;;;;13.32;5.95;;;;;;;;;;6281883;22;20032;-79
2022/03/10 03:10:03;;;;;;;12.35;6.00;;;;;;;;;;6255065;22;20033;-80
2022/03/10 03:12:32;;;;;;;12.52;5.43;;;;;;;;;;6281644;22;20315;-88
2022/03/10 03:15:00;;;;;;;12.13;5.40;;;;;;;;;;6256696;22;20016;-88
2022/03/10 03:17:27;;;;;;;10.27;4.70;;;;;;;;;;6283405;22;20153;-88
2022/03/10 03:19:55;;;;;;;10.27;4.90;;;;;;;;;;6284075;22;20415;-88
2022/03/10 03:22:22;;;;;;;10.80;5.15;;;;;;;;;;6256924;22;20019;-88
2022/03/10 03:25:17;;;;;;;10.05;4.82;;;;;;;;;;6283712;22;20117;-88
2022/03/10 03:27:48;;;;;;;10.65;4.88;;;;;;;;;;6294983;22;20019;-89
2022/03/10 03:30:16;;;;;;;9.40;4.65;;;;;;;;;;6301437;22;20020;-88
2022/03/10 03:32:45;;;;;;;10.93;5.30;;;;;;;;;;6304214;22;20063;-88
2022/03/10 03:35:13;;;;;;;9.85;4.97;;;;;;;;;;6306601;22;20019;-88
2022/03/10 03:37:41;;;;;;;10.00;5.15;;;;;;;;;;6279813;22;20027;-88
2022/03/10 03:40:09;;;;;;;12.23;5.22;;;;;;;;;;6306867;22;20007;-79
2022/03/10 03:42:37;;;;;;;11.30;5.00;;;;;;;;;;6280930;22;20110;-79
2022/03/10 03:45:10;;;;;;;10.77;4.57;;;;;;;;;;6284168;22;20450;-79
2022/03/10 03:47:38;;;;;;;14.55;5.75;;;;;;;;;;6287359;22;20091;-82
2022/03/10 03:50:07;;;;;;;12.00;5.63;;;;;;;;;;6301936;22;20165;-82
2022/03/10 03:52:35;;;;;;;13.70;5.60;;;;;;;;;;6287771;22;20019;-87
2022/03/10 03:55:08;;;;;;;11.50;5.40;;;;;;;;;;6287432;22;20039;-87
2022/03/10 03:57:36;;;;;;;11.20;5.20;;;;;;;;;;6285124;22;20012;-87
2022/03/10 04:00:06;;;;;;;12.43;5.30;;;;;;;;;;6286647;22;20061;-87
2022/03/10 04:02:37;;;;;;;14.52;5.50;;;;;;;;;;6275291;22;20385;-88
2022/03/10 04:05:06;;;;;;;13.68;5.82;;;;;;;;;;6285853;22;20015;-88
2022/03/10 04:07:34;;;;;;;11.00;5.20;;;;;;;;;;6286133;22;20016;-87
2022/03/10 04:10:03;;;;;;;13.77;5.45;;;;;;;;;;6287158;22;20179;-87
2022/03/10 04:12:32;;;;;;;11.80;5.88;;;;;;;;;;6289995;22;20062;-87
2022/03/10 04:15:00;;;;;;;11.88;5.13;;;;;;;;;;6288583;22;20019;-87
2022/03/10 04:17:27;;;;;;;13.50;5.78;;;;;;;;;;6288154;22;20423;-87
2022/03/10 04:19:55;;;;;;;10.90;5.40;;;;;;;;;;6289846;22;20020;-88
2022/03/10 04:22:23;;;;;;;13.60;5.30;;;;;;;;;;6291280;22;20015;-88
2022/03/10 04:24:51;;;;;;;14.88;6.93;;;;;;;;;;6296749;22;20095;-88
2022/03/10 04:27:20;;;;;;;14.43;5.70;;;;;;;;;;6298052;22;20015;-88
2022/03/10 04:29:48;;;;;;;12.63;5.97;;;;;;;;;;6300411;22;20027;-79
2022/03/10 04:32:15;;;;;;;14.80;5.28;;;;;;;;;;6284375;22;20023;-79
2022/03/10 04:34:42;;;;;;;14.68;5.95;;;;;;;;;;6294849;22;20033;-78
2022/03/10 04:37:10;;;;;;;15.93;6.85;;;;;;;;;;6284724;22;20031;-79
2022/03/10 04:39:38;;;;;;;12.73;5.93;;;;;;;;;;6293425;22;20019;-79
2022/03/10 04:42:07;;;;;;;12.15;6.10;;;;;;;;;;6289416;22;20023;-80
2022/03/10 04:44:34;;;;;;;16.85;6.55;;;;;;;;;;6294944;22;20087;-78
2022/03/10 04:47:03;;;;;;;13.13;6.20;;;;;;;;;;6298052;22;20376;-87
2022/03/10 04:49:30;;;;;;;15.43;5.55;;;;;;;;;;6303727;22;20076;-87
2022/03/10 04:51:58;;;;;;;17.42;6.07;;;;;;;;;;6307915;22;20018;-88
2022/03/10 04:54:26;;;;;;;14.43;6.00;;;;;;;;;;6296584;22;20075;-87
2022/03/10 04:56:55;;;;;;;16.58;6.50;;;;;;;;;;6309420;22;20026;-87
2022/03/10 04:59:25;;;;;;;15.05;6.80;;;;;;;;;;6308713;22;20121;-87
2022/03/10 05:01:52;;;;;;;22.98;6.82;;;;;;;;;;6306664;22;20086;-87
2022/03/10 05:04:22;;;;;;;15.27;7.07;;;;;;;;;;6306105;22;20118;-87
2022/03/10 05:06:50;;;;;;;14.88;6.10;;;;;;;;;;6305687;22;20038;-87
2022/03/10 05:09:18;;;;;;;15.35;6.38;;;;;;;;;;6298874;22;20026;-79
2022/03/10 05:11:46;;;;;;;16.98;7.00;;;;;;;;;;6293010;22;20023;-79
2022/03/10 05:14:14;;;;;;;13.65;6.68;;;;;;;;;;6298909;22;20023;-87
2022/03/10 05:16:42;;;;;;;14.23;6.55;;;;;;;;;;6298791;22;20031;-88
2022/03/10 05:19:11;;;;;;;15.15;6.57;;;;;;;;;;6271455;22;20342;-88
2022/03/10 05:21:39;;;;;;;14.48;6.38;;;;;;;;;;6282915;22;20039;-87
2022/03/10 05:24:07;;;;;;;17.17;6.95;;;;;;;;;;6283705;22;20073;-88
2022/03/10 05:26:37;;;;;;;18.45;7.80;;;;;;;;;;6281317;22;20020;-88
2022/03/10 05:29:04;;;;;;;16.85;6.70;;;;;;;;;;6281567;22;20043;-88
2022/03/10 05:31:33;;;;;;;17.27;7.20;;;;;;;;;;6271630;22;20051;-88
2022/03/10 05:34:02;;;;;;;11.57;5.95;;;;;;;;;;6284447;22;20031;-87
2022/03/10 05:36:29;;;;;;;16.65;6.88;;;;;;;;;;6284727;22;20020;-87
2022/03/10 05:38:56;;;;;;;15.05;7.10;;;;;;;;;;6257896;22;20015;-88
2022/03/10 05:41:24;;;;;;;17.65;7.22;;;;;;;;;;6281667;22;20022;-87
2022/03/10 05:43:52;;;;;;;15.25;7.20;;;;;;;;;;6283206;22;20028;-87
2022/03/10 05:46:20;;;;;;;17.30;6.57;;;;;;;;;;6282685;22;20019;-79
2022/03/10 05:48:50;;;;;;;15.30;6.57;;;;;;;;;;6281978;22;20046;-78
2022/03/10 05:51:19;;;;;;;16.30;7.20;;;;;;;;;;6281501;22;20484;-79
2022/03/10 05:53:50;;;;;;;17.75;7.18;;;;;;;;;;6283399;22;20091;-86
2022/03/10 05:56:17;;;;;;;15.02;6.80;;;;;;;;;;6282075;22;20019;-86
2022/03/10 05:58:46;;;;;;;16.10;6.68;;;;;;;;;;6281728;22;20470;-87
2022/03/10 06:01:14;;;;;;;11.88;6.07;;;;;;;;;;6281917;22;20027;-87
2022/03/10 06:03:42;;;;;;;14.63;6.40;;;;;;;;;;6283289;22;20024;-87
2022/03/10 06:06:13;;;;;;;15.13;6.47;;;;;;;;;;6271310;22;20110;-87
2022/03/10 06:08:43;;;;;;;13.88;6.10;;;;;;;;;;6281532;22;20043;-78
2022/03/10 06:11:14;;;;;;;16.80;6.95;;;;;;;;;;6277415;22;20381;-78
2022/03/10 06:13:42;;;;;;;15.60;7.65;;;;;;;;;;6279991;22;20019;-78
2022/03/10 06:16:10;;;;;;;14.57;6.80;;;;;;;;;;6279556;22;20038;-79
2022/03/10 06:18:39;;;;;;;15.45;6.80;;;;;;;;;;6280290;22;20099;-78
2022/03/10 06:21:06;;;;;;;16.40;7.03;;;;;;;;;;6278247;22;20039;-78
2022/03/10 06:23:34;;;;;;;15.70;7.78;;;;;;;;;;6280690;22;20038;-79
2022/03/10 06:26:02;;;;;;;15.73;6.95;;;;;;;;;;6280098;22;20023;-78
2022/03/10 06:28:31;;;;;;;20.83;8.38;;;;;;;;;;6280283;22;20012;-78
2022/03/10 06:30:58;;;;;;;19.08;7.38;;;;;;;;;;6279682;22;20508;-78
2022/03/10 06:33:26;;;;;;;17.85;7.47;;;;;;;;;;6280058;22;20054;-78
2022/03/10 06:35:54;;;;;;;26.58;7.97;;;;;;;;;;6278395;22;20016;-78
2022/03/10 06:38:23;;;;;;;16.13;6.88;;;;;;;;;;6279639;22;20879;-78
2022/03/10 06:40:50;;;;;;;17.73;7.78;;;;;;;;;;6279027;22;20050;-78
2022/03/10 06:43:18;;;;;;;23.10;7.95;;;;;;;;;;6279360;22;20127;-78
2022/03/10 06:45:46;;;;;;;25.42;7.65;;;;;;;;;;6278013;22;20019;-79
2022/03/10 06:48:15;;;;;;;19.33;8.50;;;;;;;;;;6281845;22;20085;-79
2022/03/10 06:50:42;;;;;;;20.70;7.40;;;;;;;;;;6281826;22;20031;-78
2022/03/10 06:53:11;;;;;;;17.73;6.57;;;;;;;;;;6270315;22;20024;-78
2022/03/10 06:55:38;;;;;;;15.70;7.35;;;;;;;;;;6282340;22;20770;-78
2022/03/10 06:58:06;;;;;;;15.70;7.13;;;;;;;;;;6282336;22;20129;-78
2022/03/10 07:00:34;;;;;;;15.55;6.88;;;;;;;;;;6280994;22;20175;-78
2022/03/10 07:03:03;;;;;;;16.58;6.70;;;;;;;;;;6282382;22;20126;-78
2022/03/10 07:05:30;;;;;;;16.75;6.70;;;;;;;;;;6283692;22;20109;-79
2022/03/10 07:07:58;;;;;;;15.77;7.07;;;;;;;;;;6283778;22;20022;-78
2022/03/10 07:10:26;;;;;;;17.77;7.20;;;;;;;;;;6283738;22;20019;-79
2022/03/10 07:12:54;;;;;;;16.60;7.22;;;;;;;;;;6272216;22;20336;-78
2022/03/10 07:15:23;;;;;;;17.95;7.53;;;;;;;;;;6284359;22;20125;-78
2022/03/10 07:17:52;;;;;;;17.55;6.55;;;;;;;;;;6286689;22;20023;-78
2022/03/10 07:20:21;;;;;;;13.18;6.25;;;;;;;;;;6274365;22;20019;-78
2022/03/10 07:22:48;;;;;;;16.38;6.97;;;;;;;;;;6285826;22;20075;-78
2022/03/10 07:25:17;;;;;;;15.65;7.53;;;;;;;;;;6284396;22;20019;-79
2022/03/10 07:27:47;;;;;;;17.98;7.35;;;;;;;;;;6286449;22;20447;-79
2022/03/10 07:30:18;;;;;;;15.18;7.40;;;;;;;;;;6279346;22;20099;-78
2022/03/10 07:32:47;;;;;;;17.92;7.50;;;;;;;;;;6276068;22;20090;-78
2022/03/10 07:35:14;;;;;;;11.90;6.50;;;;;;;;;;6281681;22;20023;-78
2022/03/10 07:37:43;;;;;;;14.07;6.57;;;;;;;;;;6283032;22;20779;-77
2022/03/10 07:40:11;;;;;;;12.40;6.78;;;;;;;;;;6281613;22;20137;-78
2022/03/10 07:42:41;;;;;;;16.40;7.05;;;;;;;;;;6280402;22;20019;-76
2022/03/10 07:45:10;;;;;;;19.05;6.72;;;;;;;;;;6279183;22;20332;-77
2022/03/10 07:47:39;;;;;;;21.30;7.55;;;;;;;;;;6278943;22;20142;-77
2022/03/10 07:50:07;;;;;;;16.17;6.65;;;;;;;;;;6280124;22;20023;-77
2022/03/10 07:52:34;;;;;;;16.48;6.53;;;;;;;;;;6268185;22;20024;-77
2022/03/10 07:55:03;;;;;;;15.13;7.20;;;;;;;;;;6281248;22;20085;-77
2022/03/10 07:57:30;;;;;;;19.90;8.00;;;;;;;;;;6279017;22;20022;-77
2022/03/10 07:59:58;;;;;;;14.75;6.13;;;;;;;;;;6281031;22;20094;-76
2022/03/10 08:02:26;;;;;;;19.73;7.72;;;;;;;;;;6277851;22;20441;-77
2022/03/10 08:04:54;;;;;;;17.70;7.70;;;;;;;;;;6278707;22;20103;-77
2022/03/10 08:07:22;;;;;;;17.13;7.03;;;;;;;;;;6279484;22;20092;-77
2022/03/10 08:09:50;;;;;;;17.00;7.70;;;;;;;;;;6277908;22;20439;-77
2022/03/10 08:12:18;;;;;;;17.80;7.30;;;;;;;;;;6280070;22;20069;-77
2022/03/10 08:14:46;;;;;;;15.98;7.55;;;;;;;;;;6278241;22;20030;-77
2022/03/10 08:17:14;;;;;;;18.90;7.65;;;;;;;;;;6277704;22;20047;-78
2022/03/10 08:19:42;;;;;;;16.92;6.95;;;;;;;;;;6280558;22;20039;-77
2022/03/10 08:22:10;;;;;;;17.98;7.93;;;;;;;;;;6280431;22;20054;-77
2022/03/10 08:24:41;;;;;;;18.90;7.80;;;;;;;;;;6280561;22;20119;-77
2022/03/10 08:27:13;;;;;;;19.20;7.60;;;;;;;;;;6278829;22;20107;-77
2022/03/10 08:29:44;;;;;;;18.42;7.78;;;;;;;;;;6280026;22;20030;-77
2022/03/10 08:32:15;;;;;;;16.75;7.65;;;;;;;;;;6277101;22;20094;-78
2022/03/10 08:34:43;;;;;;;16.02;7.97;;;;;;;;;;6277854;22;20023;-78
2022/03/10 08:37:10;;;;;;;16.15;7.38;;;;;;;;;;6278768;22;20042;-77
2022/03/10 08:39:38;;;;;;;17.48;6.82;;;;;;;;;;6281005;22;20023;-78
2022/03/10 08:42:07;;;;;;;16.30;7.45;;;;;;;;;;6280746;22;20772;-77
2022/03/10 08:44:37;;;;;;;14.45;7.53;;;;;;;;;;6277731;22;20084;-77
2022/03/10 08:47:08;;;;;;;14.05;6.68;;;;;;;;;;6278113;22;20020;-78
2022/03/10 08:49:36;;;;;;;19.13;7.30;;;;;;;;;;6241812;22;20019;-76
2022/03/10 08:52:05;;;;;;;19.80;7.93;;;;;;;;;;6277430;22;20026;-77
2022/03/10 08:54:32;;;;;;;16.30;7.43;;;;;;;;;;6278115;22;20480;-77
2022/03/10 08:57:00;;;;;;;16.38;7.55;;;;;;;;;;6278197;22;20024;-77
2022/03/10 08:59:28;;;;;;;15.95;7.55;;;;;;;;;;6279571;22;20011;-76
2022/03/10 09:01:57;;;;;;;17.48;7.65;;;;;;;;;;6279912;22;20034;-77
2022/03/10 09:04:26;;;;;;;15.32;6.95;;;;;;;;;;6269740;22;20067;-77
2022/03/10 09:06:55;;;;;;;15.98;7.18;;;;;;;;;;6280450;22;20692;-77
2022/03/10 09:09:24;;;;;;;15.23;7.50;;;;;;;;;;6279254;22;20028;-77
2022/03/10 09:11:52;;;;;;;14.80;7.28;;;;;;;;;;6277654;22;20348;-77
2022/03/10 09:14:20;;;;;;;20.95;8.23;;;;;;;;;;6278713;22;20435;-77
2022/03/10 09:16:51;;;;;;;16.40;7.10;;;;;;;;;;6279785;22;20043;-76
2022/03/10 09:19:18;;;;;;;15.15;7.18;;;;;;;;;;6278641;22;20043;-77
2022/03/10 09:21:47;;;;;;;16.33;7.78;;;;;;;;;;6281113;22;20073;-77
2022/03/10 09:24:15;;;;;;;16.48;7.18;;;;;;;;;;6281440;22;20245;-77
2022/03/10 09:26:42;;;;;;;16.08;6.75;;;;;;;;;;6280021;22;20019;-77
2022/03/10 09:29:11;;;;;;;13.20;6.75;;;;;;;;;;6279800;22;20435;-77
2022/03/10 09:31:38;;;;;;;20.65;7.32;;;;;;;;;;6279528;22;20016;-77
2022/03/10 09:34:06;;;;;;;15.77;7.03;;;;;;;;;;6279974;22;20077;-77
2022/03/10 09:36:34;;;;;;;16.63;7.57;;;;;;;;;;6268685;22;20205;-77
2022/03/10 09:39:02;;;;;;;15.20;6.30;;;;;;;;;;6281518;22;20016;-77
2022/03/10 09:41:30;;;;;;;13.05;6.47;;;;;;;;;;6278165;22;20179;-77
2022/03/10 09:43:59;;;;;;;13.93;6.72;;;;;;;;;;6280357;22;20023;-77
2022/03/10 09:46:26;;;;;;;12.80;6.90;;;;;;;;;;6280421;22;20490;-77
2022/03/10 09:48:54;;;;;;;14.52;7.47;;;;;;;;;;6280977;22;20077;-76
2022/03/10 09:51:23;;;;;;;13.30;6.60;;;;;;;;;;6279989;22;20026;-77
2022/03/10 09:53:50;;;;;;;13.02;6.25;;;;;;;;;;6282797;22;20019;-77
2022/03/10 09:56:20;;;;;;;15.63;7.60;;;;;;;;;;6281040;22;20127;-77
2022/03/10 09:58:48;;;;;;;12.63;6.45;;;;;;;;;;6281068;22;20715;-77
2022/03/10 10:01:16;;;;;;;14.73;6.57;;;;;;;;;;6280130;22;20024;-77
2022/03/10 10:03:44;;;;;;;15.00;7.53;;;;;;;;;;6279083;22;20051;-77
2022/03/10 10:06:12;;;;;;;14.15;7.03;;;;;;;;;;6278124;22;20453;-77
2022/03/10 10:08:42;;;;;;;14.10;7.28;;;;;;;;;;6281453;22;20011;-77
2022/03/10 10:11:14;;;;;;;16.27;7.30;;;;;;;;;;6281206;22;20423;-76
2022/03/10 10:13:48;;;;;;;12.15;6.20;;;;;;;;;;6281625;22;20473;-77
2022/03/10 10:16:19;;;;;;;14.52;6.35;;;;;;;;;;6269514;22;20019;-77
2022/03/10 10:18:46;;;;;;;13.10;6.43;;;;;;;;;;6281584;22;20020;-78
2022/03/10 10:21:20;;;;;;;16.38;7.15;;;;;;;;;;6283174;22;20435;-78
2022/03/10 10:23:50;;;;;;;15.25;7.00;;;;;;;;;;6282887;22;20085;-77
2022/03/10 10:26:20;;;;;;;12.70;6.53;;;;;;;;;;6283339;22;20024;-77
2022/03/10 10:28:51;;;;;;;16.02;6.80;;;;;;;;;;6280705;22;20022;-78
2022/03/10 10:31:24;;;;;;;15.48;7.00;;;;;;;;;;6270785;22;20114;-78
2022/03/10 10:33:56;;;;;;;14.82;6.82;;;;;;;;;;6282360;22;20019;-77
2022/03/10 10:36:32;;;;;;;19.52;7.57;;;;;;;;;;6282941;22;20135;-77
2022/03/10 10:39:11;;;;;;;14.38;7.03;;;;;;;;;;6283457;22;20026;-77
2022/03/10 10:41:39;;;;;;;14.95;6.78;;;;;;;;;;6282728;22;20030;-78
2022/03/10 10:44:12;;;;;;;12.48;5.80;;;;;;;;;;6281681;22;20019;-77
2022/03/10 10:46:43;;;;;;;16.27;7.18;;;;;;;;;;6282451;22;20019;-81
2022/03/10 10:49:18;;;;;;;15.27;7.45;;;;;;;;;;6285835;22;20042;-80
2022/03/10 10:51:57;;;;;;;15.82;6.45;;;;;;;;;;6284107;22;20099;-82
2022/03/10 10:54:29;;;;;;;12.88;6.43;;;;;;;;;;6282660;22;20075;-81
2022/03/10 10:56:57;;;;;;;14.80;6.22;;;;;;;;;;6283538;22;20110;-80
2022/03/10 10:59:35;;;;;;;13.13;6.97;;;;;;;;;;6284589;22;20066;-80
2022/03/10 11:02:08;;;;;;;12.95;6.60;;;;;;;;;;6282831;22;20059;-80
2022/03/10 11:04:42;;;;;;;12.77;6.53;;;;;;;;;;6256773;22;20027;-81
2022/03/10 11:07:09;;;;;;;15.60;6.70;;;;;;;;;;6284625;22;20031;-80
2022/03/10 11:09:41;;;;;;;12.90;6.40;;;;;;;;;;6283836;22;20090;-80
2022/03/10 11:12:13;;;;;;;15.57;7.05;;;;;;;;;;6282763;22;20586;-80
2022/03/10 11:14:42;;;;;;;11.70;5.68;;;;;;;;;;6283728;22;20118;-80
2022/03/10 11:17:11;;;;;;;10.73;4.95;;;;;;;;;;6283360;22;20020;-80
2022/03/10 11:19:44;;;;;;;11.80;5.90;;;;;;;;;;6284679;22;20718;-80
2022/03/10 11:22:24;;;;;;;15.68;6.88;;;;;;;;;;6282378;22;20016;-81
2022/03/10 11:25:15;;;;;;;13.10;6.18;;;;;;;;;;6283949;22;20095;-80
2022/03/10 11:27:51;;;;;;;13.63;6.10;;;;;;;;;;6271399;22;20023;-81
2022/03/10 11:30:26;;;;;;;15.95;6.65;;;;;;;;;;6283696;22;20042;-81
2022/03/10 11:33:09;;;;;;;14.95;6.45;;;;;;;;;;6282280;22;20455;-80
2022/03/10 11:35:46;;;;;;;13.43;6.90;;;;;;;;;;6283658;22;20026;-80
2022/03/10 11:38:17;;;;;;;15.25;7.65;;;;;;;;;;6288981;22;20020;-80
2022/03/10 11:40:46;;;;;;;14.05;6.82;;;;;;;;;;6296574;22;20378;-80
2022/03/10 11:43:30;;;;;;;15.05;6.93;;;;;;;;;;6262100;22;20149;-81
2022/03/10 11:46:17;;;;;;;14.32;6.53;;;;;;;;;;6296943;22;20058;-80
2022/03/10 11:49:11;;;;;;;13.55;6.60;;;;;;;;;;6299367;22;20015;-80
2022/03/10 11:51:56;;;;;;;13.27;6.57;;;;;;;;;;6278599;22;20024;-81
2022/03/10 11:54:27;;;;;;;13.50;6.72;;;;;;;;;;6293905;22;20069;-80
2022/03/10 11:57:01;;;;;;;15.32;7.28;;;;;;;;;;6287957;22;20043;-80
2022/03/10 11:59:32;;;;;;;12.90;5.63;;;;;;;;;;6283678;22;20111;-80
2022/03/10 12:02:00;;;;;;;13.60;6.15;;;;;;;;;;6284206;22;20030;-81
2022/03/10 12:04:41;;;;;;;15.13;7.50;;;;;;;;;;6282313;22;20087;-80
2022/03/10 12:07:16;;;;;;;14.68;7.30;;;;;;;;;;6283329;22;20043;-80
2022/03/10 12:10:04;;;;;;;9.98;4.95;;;;;;;;;;6272654;22;20023;-80
2022/03/10 12:12:35;;;;;;;15.95;7.07;;;;;;;;;;6272110;22;20093;-81
2022/03/10 12:15:26;;;;;;;16.50;6.50;;;;;;;;;;6282479;22;20094;-80
2022/03/10 12:17:55;;;;;;;13.27;5.93;;;;;;;;;;6283109;22;20028;-80
2022/03/10 12:20:40;;;;;;;13.95;6.68;;;;;;;;;;6283604;22;20023;-82
2022/03/10 12:23:09;;;;;;;13.88;7.50;;;;;;;;;;6282191;22;20019;-80
2022/03/10 12:25:44;;;;;;;12.25;6.65;;;;;;;;;;6283941;22;20450;-80
2022/03/10 12:28:41;;;;;;;14.27;6.18;;;;;;;;;;6284692;22;20045;-80
2022/03/10 12:31:18;;;;;;;15.50;6.65;;;;;;;;;;6282839;22;20499;-80
2022/03/10 12:33:51;;;;;;;13.65;6.68;;;;;;;;;;6283695;22;20019;-81
2022/03/10 12:36:29;;;;;;;16.42;6.72;;;;;;;;;;6290800;22;20046;-80
2022/03/10 12:38:59;;;;;;;14.95;7.85;;;;;;;;;;6294637;22;20103;-81
2022/03/10 12:41:28;;;;;;;15.25;7.60;;;;;;;;;;6295467;22;20022;-80
2022/03/10 12:44:01;;;;;;;13.98;7.47;;;;;;;;;;6296782;22;20087;-80
2022/03/10 12:46:32;;;;;;;18.98;6.53;;;;;;;;;;6294256;22;20050;-81
2022/03/10 12:49:02;;;;;;;17.77;7.95;;;;;;;;;;6294832;22;20015;-81
2022/03/10 12:51:35;;;;;;;16.85;7.93;;;;;;;;;;6284350;22;20019;-81
2022/03/10 12:54:05;;;;;;;17.67;8.23;;;;;;;;;;6286129;22;20443;-80
2022/03/10 12:56:43;;;;;;;15.77;8.13;;;;;;;;;;6285003;22;20019;-80
2022/03/10 12:59:11;;;;;;;16.17;7.28;;;;;;;;;;6284425;22;20082;-81
2022/03/10 13:01:39;;;;;;;14.88;7.38;;;;;;;;;;6284413;22;20118;-82
2022/03/10 13:04:12;;;;;;;19.35;7.90;;;;;;;;;;6282679;22;20181;-81
2022/03/10 13:06:40;;;;;;;17.88;7.75;;;;;;;;;;6284232;22;20016;-81
2022/03/10 13:09:08;;;;;;;18.50;8.05;;;;;;;;;;6284228;22;20409;-81
2022/03/10 13:11:37;;;;;;;15.07;7.32;;;;;;;;;;6283634;22;20138;-81
2022/03/10 13:14:12;;;;;;;17.55;7.32;;;;;;;;;;6283082;22;20027;-81
2022/03/10 13:16:44;;;;;;;15.07;7.00;;;;;;;;;;6283147;22;20019;-82
2022/03/10 13:19:32;;;;;;;18.17;7.60;;;;;;;;;;6283701;22;20070;-82
2022/03/10 13:22:05;;;;;;;14.90;6.95;;;;;;;;;;6283727;22;20202;-81
2022/03/10 13:24:41;;;;;;;16.58;7.35;;;;;;;;;;6284402;22;20451;-81
2022/03/10 13:27:16;;;;;;;15.68;7.43;;;;;;;;;;6282683;22;20019;-82
2022/03/10 13:29:50;;;;;;;11.80;5.82;;;;;;;;;;6283870;22;20023;-81
2022/03/10 13:32:22;;;;;;;13.45;6.63;;;;;;;;;;6284342;22;20111;-80
2022/03/10 13:34:58;;;;;;;16.98;7.18;;;;;;;;;;6282071;22;20023;-81
2022/03/10 13:37:27;;;;;;;13.15;6.00;;;;;;;;;;6272506;22;20102;-81
2022/03/10 13:39:55;;;;;;;17.08;6.45;;;;;;;;;;6280237;22;20420;-77
2022/03/10 13:42:26;;;;;;;17.73;7.20;;;;;;;;;;6276002;22;20031;-77
2022/03/10 13:45:20;;;;;;;13.77;6.60;;;;;;;;;;6277671;22;20703;-77
2022/03/10 13:47:57;;;;;;;15.82;6.22;;;;;;;;;;6263702;22;20031;-77
2022/03/10 13:50:35;;;;;;;15.23;7.35;;;;;;;;;;6278070;22;20095;-77
2022/03/10 13:53:08;;;;;;;15.32;6.82;;;;;;;;;;6277270;22;20020;-77
2022/03/10 13:55:44;;;;;;;16.17;6.03;;;;;;;;;;6277837;22;20024;-78
2022/03/10 13:58:11;;;;;;;12.15;5.32;;;;;;;;;;6277701;22;20026;-77
2022/03/10 14:00:45;;;;;;;13.77;6.05;;;;;;;;;;6277691;22;20016;-77
2022/03/10 14:03:13;;;;;;;14.00;6.68;;;;;;;;;;6277344;22;20020;-78
2022/03/10 14:05:50;;;;;;;18.40;7.18;;;;;;;;;;6267144;22;20438;-77
2022/03/10 14:08:26;;;;;;;17.88;7.43;;;;;;;;;;6278656;22;20015;-77
2022/03/10 14:11:05;;;;;;;13.48;6.00;;;;;;;;;;6278221;22;20043;-77
2022/03/10 14:13:39;;;;;;;13.23;6.22;;;;;;;;;;6275800;22;20026;-77
2022/03/10 14:16:08;;;;;;;16.77;6.28;;;;;;;;;;6278441;22;20057;-77
2022/03/10 14:18:45;;;;;;;17.08;7.07;;;;;;;;;;6278660;22;20019;-80
2022/03/10 14:21:16;;;;;;;12.77;6.05;;;;;;;;;;6270583;22;20069;-80
2022/03/10 14:23:58;;;;;;;13.30;5.70;;;;;;;;;;6283614;22;20466;-80
2022/03/10 14:26:36;;;;;;;11.82;6.25;;;;;;;;;;6282320;22;20439;-80
2022/03/10 14:29:04;;;;;;;14.85;6.55;;;;;;;;;;6282357;22;20392;-80
2022/03/10 14:31:33;;;;;;;13.25;5.85;;;;;;;;;;6268809;22;20113;-80
2022/03/10 14:34:00;;;;;;;10.38;5.43;;;;;;;;;;6279924;22;20055;-81
2022/03/10 14:36:28;;;;;;;13.18;6.32;;;;;;;;;;6282725;22;20020;-81
2022/03/10 14:38:58;;;;;;;11.68;6.07;;;;;;;;;;6281717;22;20020;-81
2022/03/10 14:41:28;;;;;;;13.07;5.82;;;;;;;;;;6278154;22;20345;-80
2022/03/10 14:43:59;;;;;;;12.73;5.53;;;;;;;;;;6280477;22;20039;-81
2022/03/10 14:46:26;;;;;;;10.48;4.40;;;;;;;;;;6279545;22;20020;-80
2022/03/10 14:48:55;;;;;;;12.88;5.78;;;;;;;;;;6280098;22;20647;-80
2022/03/10 14:51:23;;;;;;;13.65;5.45;;;;;;;;;;6281986;22;20023;-80
2022/03/10 14:53:52;;;;;;;12.43;5.45;;;;;;;;;;6282803;22;20019;-80